Time;durP1;ratioP1;P1;durP2;ratioP2;P2;SDS_P1;SDS_P2;PMS_P1;PMS_P2;Temp;Humidity;BMP_temperature;BMP_pressure;BME280_temperature;BME280_humidity;BME280_pressure;Samples;Min_cycle;Max_cycle;Signal;HPM_P1;HPM_P2
2021/03/10 00:01:11;;;;;;;83.07;37.50;;;8.10;99.90;;;;;;5110086;28;20192;-80
2021/03/10 00:03:37;;;;;;;74.63;37.83;;;8.10;99.90;;;;;;5110420;28;20275;-81
2021/03/10 00:06:12;;;;;;;73.50;38.23;;;8.10;99.90;;;;;;5110246;28;20209;-81
2021/03/10 00:08:39;;;;;;;74.80;37.37;;;8.00;99.90;;;;;;5087246;28;20639;-81
2021/03/10 00:11:10;;;;;;;80.37;38.53;;;7.90;99.90;;;;;;5087682;28;20200;-81
2021/03/10 00:13:37;;;;;;;76.17;37.73;;;7.90;99.90;;;;;;5093373;28;20648;-81
2021/03/10 00:16:04;;;;;;;75.47;39.47;;;7.90;99.90;;;;;;5089079;28;20196;-81
2021/03/10 00:18:31;;;;;;;78.43;37.83;;;7.80;99.90;;;;;;5074959;28;20761;-80
2021/03/10 00:20:57;;;;;;;80.77;38.10;;;7.70;99.90;;;;;;5075025;28;20721;-81
2021/03/10 00:23:23;;;;;;;81.37;39.97;;;7.70;99.90;;;;;;5075101;28;20791;-81
2021/03/10 00:25:50;;;;;;;81.73;40.10;;;7.70;99.90;;;;;;5074802;28;20290;-80
2021/03/10 00:28:16;;;;;;;78.07;38.83;;;7.70;99.90;;;;;;5075128;28;20219;-82
2021/03/10 00:30:43;;;;;;;86.43;39.17;;;7.60;99.90;;;;;;5081354;28;20201;-81
2021/03/10 00:33:10;;;;;;;79.30;39.37;;;7.50;99.90;;;;;;5075874;28;20632;-81
2021/03/10 00:35:36;;;;;;;75.70;37.83;;;7.40;99.90;;;;;;5085538;28;20225;-81
2021/03/10 00:38:03;;;;;;;75.97;36.73;;;7.30;99.90;;;;;;5077586;28;20289;-81
2021/03/10 00:40:30;;;;;;;92.20;39.97;;;7.10;99.90;;;;;;5074540;28;20193;-81
2021/03/10 00:42:56;;;;;;;81.53;37.90;;;7.00;99.90;;;;;;5074281;28;20594;-80
2021/03/10 00:45:23;;;;;;;86.47;39.13;;;6.90;99.90;;;;;;5074298;28;20650;-80
2021/03/10 00:47:50;;;;;;;84.13;39.47;;;6.90;99.90;;;;;;5074304;28;20193;-81
2021/03/10 00:50:19;;;;;;;79.03;38.17;;;6.70;99.90;;;;;;5074085;28;20278;-80
2021/03/10 00:52:45;;;;;;;88.37;40.30;;;6.50;99.90;;;;;;5074396;28;20197;-81
2021/03/10 00:55:12;;;;;;;95.50;42.30;;;6.40;99.90;;;;;;5073891;28;20217;-80
2021/03/10 00:57:39;;;;;;;85.13;38.67;;;6.40;99.90;;;;;;5084764;28;20219;-80
2021/03/10 01:00:07;;;;;;;89.37;39.20;;;6.40;99.90;;;;;;5076446;28;20554;-80
2021/03/10 01:02:34;;;;;;;94.47;40.27;;;6.20;99.90;;;;;;5074235;28;20283;-80
2021/03/10 01:05:01;;;;;;;101.43;41.07;;;6.20;99.90;;;;;;5074469;28;20236;-81
2021/03/10 01:07:27;;;;;;;87.87;38.53;;;6.20;99.90;;;;;;5074159;28;20204;-81
2021/03/10 01:09:54;;;;;;;91.80;38.57;;;6.20;99.90;;;;;;5074196;28;20280;-81
2021/03/10 01:12:20;;;;;;;86.50;38.93;;;6.10;99.90;;;;;;5074018;28;20201;-81
2021/03/10 01:14:46;;;;;;;95.87;40.60;;;6.10;99.90;;;;;;5073569;28;20224;-80
2021/03/10 01:17:13;;;;;;;110.60;42.03;;;6.10;99.90;;;;;;5073235;28;20196;-80
2021/03/10 01:19:39;;;;;;;108.43;41.70;;;6.10;99.90;;;;;;5073579;28;20197;-81
2021/03/10 01:22:06;;;;;;;106.77;42.33;;;6.10;99.90;;;;;;5073955;28;20307;-81
2021/03/10 01:24:33;;;;;;;106.13;44.53;;;6.00;99.90;;;;;;5073753;28;20203;-81
2021/03/10 01:26:59;;;;;;;112.83;45.57;;;6.00;99.90;;;;;;5082598;28;20293;-81
2021/03/10 01:29:25;;;;;;;110.80;44.57;;;6.00;99.90;;;;;;5073225;28;20689;-81
2021/03/10 01:31:52;;;;;;;119.17;46.70;;;6.00;99.90;;;;;;5073695;28;20280;-81
2021/03/10 01:34:18;;;;;;;114.03;46.07;;;5.90;99.90;;;;;;5073770;28;20742;-80
2021/03/10 01:36:44;;;;;;;112.60;45.33;;;5.90;99.90;;;;;;5073489;28;20303;-80
2021/03/10 01:39:12;;;;;;;110.53;45.57;;;5.90;99.90;;;;;;5073697;28;20217;-80
2021/03/10 01:41:38;;;;;;;112.37;44.93;;;5.90;99.90;;;;;;5087767;28;20341;-80
2021/03/10 01:44:06;;;;;;;111.40;44.60;;;5.90;99.90;;;;;;5073019;28;20205;-80
2021/03/10 01:46:38;;;;;;;113.13;43.60;;;5.90;99.90;;;;;;5073143;28;20202;-81
2021/03/10 01:49:05;;;;;;;113.70;45.57;;;5.90;99.90;;;;;;5073845;28;20223;-80
2021/03/10 01:51:31;;;;;;;117.50;45.97;;;5.80;99.90;;;;;;5055743;28;20207;-81
2021/03/10 01:53:58;;;;;;;117.27;44.43;;;5.80;99.90;;;;;;5080838;28;20217;-80
2021/03/10 01:56:27;;;;;;;114.03;44.90;;;5.80;99.90;;;;;;5073361;28;20615;-80
2021/03/10 01:58:54;;;;;;;116.20;45.30;;;5.80;99.90;;;;;;5073797;28;20212;-80
2021/03/10 02:01:20;;;;;;;109.33;43.40;;;5.80;99.90;;;;;;5073459;28;20341;-80
2021/03/10 02:03:48;;;;;;;107.40;44.97;;;5.70;99.90;;;;;;5072965;28;20204;-82
2021/03/10 02:06:23;;;;;;;109.83;43.70;;;5.70;99.90;;;;;;5073330;28;20199;-80
2021/03/10 02:08:53;;;;;;;100.70;41.80;;;5.70;99.90;;;;;;5073252;28;20292;-80
2021/03/10 02:11:30;;;;;;;112.47;44.10;;;5.70;99.90;;;;;;5073451;28;20285;-80
2021/03/10 02:14:07;;;;;;;112.27;44.23;;;5.70;99.90;;;;;;5073247;28;20262;-81
2021/03/10 02:16:44;;;;;;;115.93;42.13;;;5.70;99.90;;;;;;5085779;28;20229;-80
2021/03/10 02:19:44;;;;;;;104.03;41.53;;;5.60;99.90;;;;;;5074372;28;20209;-80
2021/03/10 02:22:24;;;;;;;104.40;39.93;;;5.50;99.90;;;;;;5047477;28;20630;-80
2021/03/10 02:25:02;;;;;;;101.63;41.00;;;5.40;99.90;;;;;;5087155;28;20244;-81
2021/03/10 02:27:48;;;;;;;106.10;39.37;;;5.40;99.90;;;;;;5072950;28;20272;-80
2021/03/10 02:30:18;;;;;;;95.90;37.97;;;5.40;99.90;;;;;;5076195;28;20603;-81
2021/03/10 02:32:53;;;;;;;93.77;39.23;;;5.40;99.90;;;;;;5077160;28;20207;-80
2021/03/10 02:35:20;;;;;;;88.87;36.83;;;5.40;99.90;;;;;;5076990;28;20215;-80
2021/03/10 02:37:49;;;;;;;95.00;37.43;;;5.30;99.90;;;;;;5077074;28;20196;-81
2021/03/10 02:40:16;;;;;;;101.50;37.73;;;5.40;99.90;;;;;;5076654;28;20225;-80
2021/03/10 02:42:45;;;;;;;100.70;37.97;;;5.40;99.90;;;;;;5076566;28;20237;-81
2021/03/10 02:45:13;;;;;;;93.67;37.17;;;5.30;99.90;;;;;;5076759;28;20282;-81
2021/03/10 02:47:39;;;;;;;94.50;36.03;;;5.20;99.90;;;;;;5079168;28;20280;-81
2021/03/10 02:50:09;;;;;;;93.27;38.00;;;5.20;99.90;;;;;;5076750;28;20193;-81
2021/03/10 02:52:36;;;;;;;91.80;37.00;;;5.10;99.90;;;;;;5076960;28;20274;-80
2021/03/10 02:55:03;;;;;;;85.93;36.47;;;5.20;99.90;;;;;;5076276;28;20307;-81
2021/03/10 02:57:31;;;;;;;88.20;37.13;;;5.10;99.90;;;;;;5076978;28;20197;-81
2021/03/10 03:00:00;;;;;;;86.03;35.40;;;5.20;99.90;;;;;;5076519;28;20621;-80
2021/03/10 03:02:27;;;;;;;96.47;36.73;;;5.20;99.90;;;;;;5076570;28;20520;-81
2021/03/10 03:04:54;;;;;;;92.93;37.13;;;5.20;99.90;;;;;;5076598;28;20221;-81
2021/03/10 03:07:20;;;;;;;96.37;35.43;;;5.10;99.90;;;;;;5076257;28;20221;-81
2021/03/10 03:09:47;;;;;;;86.17;35.10;;;5.10;99.90;;;;;;5076431;28;20270;-81
2021/03/10 03:12:14;;;;;;;90.97;35.87;;;5.20;99.90;;;;;;5076190;28;20203;-81
2021/03/10 03:14:43;;;;;;;85.73;35.17;;;5.20;99.90;;;;;;5084868;28;20224;-81
2021/03/10 03:17:11;;;;;;;88.27;34.93;;;5.10;99.90;;;;;;5083671;28;20612;-81
2021/03/10 03:19:38;;;;;;;92.57;36.17;;;5.20;99.90;;;;;;5075852;28;20716;-82
2021/03/10 03:22:06;;;;;;;83.40;33.60;;;5.10;99.90;;;;;;5075720;28;20307;-81
2021/03/10 03:24:33;;;;;;;85.37;33.77;;;5.10;99.90;;;;;;5075689;28;20201;-81
2021/03/10 03:27:01;;;;;;;90.83;36.47;;;5.20;99.90;;;;;;5076078;28;20638;-81
2021/03/10 03:29:29;;;;;;;87.53;34.27;;;5.10;99.90;;;;;;5077739;28;20234;-82
2021/03/10 03:31:56;;;;;;;85.07;35.57;;;5.10;99.90;;;;;;5087928;28;20341;-81
2021/03/10 03:34:24;;;;;;;82.30;35.97;;;5.10;99.90;;;;;;5075928;28;20232;-80
2021/03/10 03:36:51;;;;;;;82.47;34.07;;;5.00;99.90;;;;;;5075591;28;20341;-80
2021/03/10 03:39:18;;;;;;;88.20;35.53;;;5.10;99.90;;;;;;5075593;28;20288;-81
2021/03/10 03:41:46;;;;;;;87.83;34.77;;;5.10;99.90;;;;;;5074942;28;20201;-81
2021/03/10 03:44:13;;;;;;;93.00;36.70;;;5.00;99.90;;;;;;5087330;28;20202;-80
2021/03/10 03:46:40;;;;;;;90.37;35.60;;;5.10;99.90;;;;;;5077587;28;20211;-80
2021/03/10 03:49:06;;;;;;;87.30;37.23;;;5.00;99.90;;;;;;5075476;28;20292;-81
2021/03/10 03:51:34;;;;;;;94.50;37.10;;;5.00;99.90;;;;;;5088918;28;20714;-80
2021/03/10 03:54:02;;;;;;;91.80;36.17;;;5.10;99.90;;;;;;5075035;28;20308;-81
2021/03/10 03:56:29;;;;;;;99.90;37.07;;;5.10;99.90;;;;;;5074600;28;20572;-81
2021/03/10 03:58:56;;;;;;;87.27;37.23;;;5.10;99.90;;;;;;5091546;28;20693;-80
2021/03/10 04:01:23;;;;;;;94.63;36.67;;;5.10;99.90;;;;;;5094550;28;20272;-81
2021/03/10 04:03:49;;;;;;;94.27;37.37;;;5.10;99.90;;;;;;5095124;28;20208;-81
2021/03/10 04:06:16;;;;;;;92.23;36.57;;;5.10;99.90;;;;;;5093209;28;20219;-81
2021/03/10 04:08:44;;;;;;;93.30;35.93;;;5.10;99.90;;;;;;5095062;28;20208;-81
2021/03/10 04:11:12;;;;;;;86.40;34.00;;;5.00;99.90;;;;;;5094608;28;20283;-81
2021/03/10 04:13:39;;;;;;;88.73;35.53;;;5.00;99.90;;;;;;5094401;28;20209;-81
2021/03/10 04:16:06;;;;;;;82.23;34.27;;;5.10;99.90;;;;;;5094343;28;20640;-80
2021/03/10 04:18:32;;;;;;;80.77;35.07;;;5.10;99.90;;;;;;5094942;28;20286;-80
2021/03/10 04:20:59;;;;;;;89.97;36.77;;;5.10;99.90;;;;;;5094650;28;20661;-80
2021/03/10 04:23:25;;;;;;;84.90;34.13;;;5.10;99.90;;;;;;5094225;28;20232;-81
2021/03/10 04:25:52;;;;;;;92.03;34.43;;;5.10;99.90;;;;;;5094816;28;20196;-81
2021/03/10 04:28:19;;;;;;;87.37;34.23;;;5.20;99.90;;;;;;5094074;28;20285;-81
2021/03/10 04:30:45;;;;;;;81.63;32.13;;;5.10;99.90;;;;;;5094062;28;20646;-80
2021/03/10 04:33:12;;;;;;;94.17;35.30;;;5.10;99.90;;;;;;5094092;28;20641;-81
2021/03/10 04:35:38;;;;;;;85.23;33.87;;;5.10;99.90;;;;;;5080330;28;20313;-81
2021/03/10 04:38:04;;;;;;;81.47;32.70;;;5.10;99.90;;;;;;5094882;28;20212;-80
2021/03/10 04:40:31;;;;;;;82.23;32.43;;;5.00;99.90;;;;;;5094446;28;20206;-80
2021/03/10 04:42:58;;;;;;;84.20;32.97;;;5.00;99.90;;;;;;5094041;28;20737;-79
2021/03/10 04:45:24;;;;;;;85.77;33.30;;;5.10;99.90;;;;;;5093557;28;20200;-80
2021/03/10 04:47:52;;;;;;;83.77;33.57;;;5.10;99.90;;;;;;5093897;28;20282;-80
2021/03/10 04:50:19;;;;;;;90.00;35.37;;;5.00;99.90;;;;;;5093592;28;20554;-80
2021/03/10 04:52:45;;;;;;;89.40;35.13;;;5.00;99.90;;;;;;5093264;28;20201;-80
2021/03/10 04:55:12;;;;;;;94.23;35.73;;;5.00;99.90;;;;;;5093708;28;20682;-80
2021/03/10 04:57:39;;;;;;;93.07;34.37;;;4.90;99.90;;;;;;5093809;28;20614;-81
2021/03/10 05:00:10;;;;;;;76.07;32.60;;;4.90;99.90;;;;;;5093615;28;20210;-81
2021/03/10 05:02:37;;;;;;;87.00;33.17;;;4.90;99.90;;;;;;5093625;28;20283;-81
2021/03/10 05:05:04;;;;;;;88.53;33.33;;;5.00;99.90;;;;;;5093674;28;20200;-80
2021/03/10 05:07:30;;;;;;;84.93;32.67;;;5.00;99.90;;;;;;5093950;28;20206;-80
2021/03/10 05:09:57;;;;;;;84.97;34.20;;;5.00;99.90;;;;;;5094172;28;20286;-80
2021/03/10 05:12:26;;;;;;;92.30;34.77;;;5.00;99.90;;;;;;5095136;28;20211;-80
2021/03/10 05:14:52;;;;;;;90.33;34.87;;;5.00;99.90;;;;;;5093903;28;20304;-81
2021/03/10 05:17:20;;;;;;;95.23;34.90;;;5.10;99.90;;;;;;5093826;28;20713;-80
2021/03/10 05:19:46;;;;;;;87.80;35.47;;;5.10;99.90;;;;;;5095277;28;20212;-80
2021/03/10 05:22:13;;;;;;;103.82;46.88;;;5.10;99.90;;;;;;5095252;28;20485;-80
2021/03/10 05:24:39;;;;;;;97.87;37.53;;;5.00;99.90;;;;;;5092001;28;20313;-81
2021/03/10 05:27:06;;;;;;;96.03;36.30;;;5.20;99.90;;;;;;5095445;28;20263;-81
2021/03/10 05:29:32;;;;;;;91.37;35.03;;;5.20;99.90;;;;;;5096199;28;20223;-80
2021/03/10 05:31:58;;;;;;;92.23;34.77;;;5.20;99.90;;;;;;5095023;28;20198;-80
2021/03/10 05:34:26;;;;;;;86.90;34.93;;;5.20;99.90;;;;;;5090196;28;20220;-81
2021/03/10 05:36:52;;;;;;;98.53;36.77;;;5.20;99.90;;;;;;5094190;28;20268;-80
2021/03/10 05:39:18;;;;;;;87.83;33.77;;;5.20;99.90;;;;;;5093145;28;20284;-80
2021/03/10 05:41:45;;;;;;;90.73;35.37;;;5.20;99.90;;;;;;5093856;28;20326;-81
2021/03/10 05:44:11;;;;;;;90.13;34.90;;;5.20;99.90;;;;;;5094107;28;20295;-81
2021/03/10 05:46:38;;;;;;;93.47;34.23;;;5.20;99.90;;;;;;5094105;28;20287;-81
2021/03/10 05:49:05;;;;;;;87.93;34.27;;;5.20;99.90;;;;;;5092520;28;20232;-81
2021/03/10 05:51:32;;;;;;;80.37;33.20;;;5.20;99.90;;;;;;5081130;28;20632;-80
2021/03/10 05:54:00;;;;;;;87.43;33.83;;;5.20;99.90;;;;;;5087996;28;20195;-80
2021/03/10 05:56:26;;;;;;;84.60;33.90;;;5.30;99.90;;;;;;5091530;28;20234;-80
2021/03/10 05:58:56;;;;;;;81.70;33.43;;;5.20;99.90;;;;;;5091643;28;20277;-80
2021/03/10 06:01:23;;;;;;;87.67;33.73;;;5.30;99.90;;;;;;5092141;28;20336;-80
2021/03/10 06:03:54;;;;;;;78.90;31.47;;;5.30;99.90;;;;;;5091501;28;20197;-81
2021/03/10 06:06:21;;;;;;;82.10;32.90;;;5.30;99.90;;;;;;5092294;28;20247;-81
2021/03/10 06:08:48;;;;;;;87.10;33.23;;;5.40;99.90;;;;;;5091760;28;20217;-81
2021/03/10 06:11:25;;;;;;;86.27;31.20;;;5.40;99.90;;;;;;5090263;28;20650;-81
2021/03/10 06:13:52;;;;;;;97.25;42.20;;;5.40;99.90;;;;;;5088460;28;25119;-80
2021/03/10 06:16:21;;;;;;;86.03;33.50;;;5.40;99.90;;;;;;5087948;28;20247;-80
2021/03/10 06:18:47;;;;;;;86.73;32.90;;;5.60;99.90;;;;;;5089500;28;20195;-81
2021/03/10 06:21:16;;;;;;;85.97;30.70;;;5.60;99.90;;;;;;5085240;28;20227;-79
2021/03/10 06:23:53;;;;;;;79.67;31.73;;;5.50;99.90;;;;;;5086864;28;20299;-81
2021/03/10 06:26:21;;;;;;;80.87;31.37;;;5.50;99.90;;;;;;5076299;28;20302;-81
2021/03/10 06:28:48;;;;;;;86.20;30.33;;;5.50;99.90;;;;;;5083448;28;20200;-81
2021/03/10 06:31:20;;;;;;;82.43;30.40;;;5.60;99.90;;;;;;5085521;28;20282;-81
2021/03/10 06:34:04;;;;;;;76.77;31.17;;;5.60;99.90;;;;;;5088165;28;20283;-80
2021/03/10 06:36:32;;;;;;;80.67;29.03;;;5.60;99.90;;;;;;5084686;28;20336;-80
2021/03/10 06:39:00;;;;;;;85.13;30.10;;;5.60;99.90;;;;;;5083534;28;20206;-81
2021/03/10 06:41:31;;;;;;;85.00;31.23;;;5.60;99.90;;;;;;5091353;28;20283;-81
2021/03/10 06:43:58;;;;;;;84.60;30.73;;;5.70;99.90;;;;;;5082272;28;20232;-81
2021/03/10 06:46:25;;;;;;;73.43;29.30;;;5.70;99.90;;;;;;5086239;28;20289;-80
2021/03/10 06:48:56;;;;;;;78.77;29.23;;;5.70;99.90;;;;;;5080630;28;20271;-81
2021/03/10 06:51:22;;;;;;;73.10;29.10;;;5.80;99.90;;;;;;5086998;28;20662;-80
2021/03/10 06:53:49;;;;;;;75.90;30.37;;;5.80;99.90;;;;;;5088657;28;20229;-80
2021/03/10 06:56:21;;;;;;;83.37;30.17;;;5.70;99.90;;;;;;5085889;28;20232;-79
2021/03/10 06:58:55;;;;;;;75.47;28.67;;;5.80;99.90;;;;;;5082589;28;20203;-82
2021/03/10 07:01:22;;;;;;;77.47;27.97;;;5.90;99.90;;;;;;5085561;28;20637;-81
2021/03/10 07:03:50;;;;;;;70.53;28.13;;;6.00;99.90;;;;;;5083479;28;20288;-81
2021/03/10 07:06:18;;;;;;;71.17;28.57;;;6.00;99.90;;;;;;5081674;28;20219;-81
2021/03/10 07:08:46;;;;;;;64.80;27.87;;;6.00;99.90;;;;;;5092374;28;20382;-80
2021/03/10 07:11:14;;;;;;;66.63;27.73;;;6.10;99.90;;;;;;5092066;28;20200;-81
2021/03/10 07:13:43;;;;;;;71.77;27.97;;;6.10;99.90;;;;;;5092313;28;20232;-82
2021/03/10 07:16:10;;;;;;;65.73;27.40;;;6.10;99.90;;;;;;5076342;28;20253;-81
2021/03/10 07:18:37;;;;;;;71.30;27.63;;;6.30;99.90;;;;;;5083350;28;20207;-80
2021/03/10 07:21:07;;;;;;;61.87;27.43;;;6.30;99.90;;;;;;5078415;28;20185;-82
2021/03/10 07:23:39;;;;;;;63.87;24.97;;;6.40;99.90;;;;;;5083887;28;20211;-82
2021/03/10 07:26:06;;;;;;;68.30;26.63;;;6.30;99.90;;;;;;5086582;28;20228;-81
2021/03/10 07:28:34;;;;;;;64.93;26.50;;;6.40;99.90;;;;;;5080187;28;20199;-81
2021/03/10 07:31:01;;;;;;;75.23;27.87;;;6.50;99.90;;;;;;5067368;28;20201;-79
2021/03/10 07:33:28;;;;;;;77.87;27.67;;;6.50;99.90;;;;;;5084738;28;20211;-78
2021/03/10 07:35:55;;;;;;;83.07;28.93;;;6.60;99.90;;;;;;5080789;28;20637;-79
2021/03/10 07:38:23;;;;;;;88.27;29.90;;;6.70;99.90;;;;;;5078184;28;20203;-79
2021/03/10 07:40:55;;;;;;;113.23;31.13;;;6.70;99.90;;;;;;5087007;28;20215;-79
2021/03/10 07:43:22;;;;;;;96.37;30.80;;;6.60;99.90;;;;;;5083941;28;20278;-78
2021/03/10 07:45:49;;;;;;;101.17;30.30;;;6.70;99.90;;;;;;5087489;28;20323;-79
2021/03/10 07:48:16;;;;;;;87.67;28.87;;;6.70;99.90;;;;;;5083516;28;20227;-78
2021/03/10 07:50:44;;;;;;;84.63;26.63;;;6.80;99.90;;;;;;5082042;28;20197;-80
2021/03/10 07:53:10;;;;;;;75.53;25.50;;;6.80;99.90;;;;;;5087531;28;20275;-79
2021/03/10 07:55:44;;;;;;;65.57;24.77;;;6.80;99.90;;;;;;5082747;28;20402;-79
2021/03/10 07:58:10;;;;;;;71.37;24.50;;;6.80;99.90;;;;;;5087051;28;20193;-80
2021/03/10 08:00:38;;;;;;;56.33;21.93;;;6.90;99.90;;;;;;5083054;28;20198;-79
2021/03/10 08:03:04;;;;;;;59.83;21.67;;;7.00;99.90;;;;;;5080726;28;20183;-79
2021/03/10 08:05:33;;;;;;;54.30;19.80;;;7.00;99.90;;;;;;5073604;28;20281;-84
2021/03/10 08:08:07;;;;;;;49.17;19.83;;;7.00;99.90;;;;;;5075649;28;20635;-79
2021/03/10 08:10:34;;;;;;;49.97;18.30;;;7.10;99.90;;;;;;5084321;28;20306;-78
2021/03/10 08:13:12;;;;;;;54.23;19.13;;;7.10;99.90;;;;;;5084203;28;20674;-79
2021/03/10 08:15:38;;;;;;;47.20;17.33;;;7.20;99.90;;;;;;5083996;28;20214;-80
2021/03/10 08:18:05;;;;;;;36.63;16.03;;;7.30;99.90;;;;;;5085508;28;20203;-79
2021/03/10 08:20:34;;;;;;;34.87;15.17;;;7.20;99.90;;;;;;5080634;28;20268;-78
2021/03/10 08:23:02;;;;;;;32.17;14.27;;;7.30;99.90;;;;;;5074325;28;20204;-78
2021/03/10 08:25:29;;;;;;;27.40;14.43;;;7.40;99.90;;;;;;5082637;28;20274;-77
2021/03/10 08:27:56;;;;;;;29.30;13.33;;;7.50;99.90;;;;;;5084403;28;20195;-77
2021/03/10 08:30:24;;;;;;;29.27;14.43;;;7.50;99.90;;;;;;5082165;28;20276;-78
2021/03/10 08:32:51;;;;;;;25.20;13.00;;;7.50;99.90;;;;;;5081758;28;20224;-79
2021/03/10 08:35:20;;;;;;;22.20;12.17;;;7.60;99.90;;;;;;5084208;28;20208;-76
2021/03/10 08:37:54;;;;;;;27.27;12.37;;;7.70;99.90;;;;;;5082379;28;20300;-76
2021/03/10 08:40:25;;;;;;;25.23;12.47;;;7.70;99.90;;;;;;5084935;28;20605;-78
2021/03/10 08:42:51;;;;;;;19.63;11.57;;;7.90;99.90;;;;;;5085066;28;20288;-76
2021/03/10 08:45:22;;;;;;;24.83;12.07;;;7.90;99.90;;;;;;5083437;28;20284;-76
2021/03/10 08:47:59;;;;;;;21.27;11.80;;;8.10;99.90;;;;;;5084150;28;20562;-77
2021/03/10 08:50:30;;;;;;;23.37;11.90;;;8.30;99.90;;;;;;5085395;28;20692;-77
2021/03/10 08:52:58;;;;;;;24.07;11.10;;;8.50;99.90;;;;;;5082722;28;20221;-78
2021/03/10 08:55:26;;;;;;;18.23;10.57;;;8.60;99.90;;;;;;5088182;28;20296;-78
2021/03/10 08:57:53;;;;;;;19.70;10.33;;;8.70;99.90;;;;;;5093572;28;20195;-78
2021/03/10 09:00:21;;;;;;;22.70;10.67;;;9.00;99.90;;;;;;5086224;28;20278;-76
2021/03/10 09:02:52;;;;;;;19.50;9.70;;;9.00;99.90;;;;;;5073608;28;20189;-77
2021/03/10 09:05:25;;;;;;;20.87;10.67;;;9.20;99.90;;;;;;5076103;28;20671;-78
2021/03/10 09:07:51;;;;;;;17.10;8.60;;;9.30;99.90;;;;;;5088505;28;20265;-77
2021/03/10 09:10:21;;;;;;;23.67;9.40;;;9.40;99.90;;;;;;5092837;28;20696;-77
2021/03/10 09:12:50;;;;;;;23.03;9.90;;;9.60;99.90;;;;;;5093748;28;20236;-78
2021/03/10 09:15:18;;;;;;;15.50;8.73;;;9.90;99.90;;;;;;5088071;28;20667;-78
2021/03/10 09:17:45;;;;;;;20.63;9.27;;;10.00;99.90;;;;;;5088826;28;20226;-78
2021/03/10 09:20:21;;;;;;;16.30;8.53;;;10.10;99.90;;;;;;5072142;28;20199;-78
2021/03/10 09:22:49;;;;;;;18.63;8.83;;;10.00;99.90;;;;;;5084096;28;20197;-76
2021/03/10 09:25:16;;;;;;;15.30;8.80;;;10.10;99.90;;;;;;5091477;28;20206;-76
2021/03/10 09:27:44;;;;;;;14.97;8.60;;;10.20;99.90;;;;;;5093274;28;20188;-76
2021/03/10 09:30:12;;;;;;;15.97;8.63;;;10.30;99.90;;;;;;5093125;28;20281;-77
2021/03/10 09:32:41;;;;;;;16.50;8.30;;;10.40;99.90;;;;;;5086861;28;20194;-78
2021/03/10 09:35:16;;;;;;;14.13;9.00;;;10.50;99.90;;;;;;5085177;28;20257;-75
2021/03/10 09:37:50;;;;;;;12.60;7.33;;;10.40;99.90;;;;;;5093908;28;20539;-78
2021/03/10 09:40:23;;;;;;;16.50;9.07;;;10.60;99.90;;;;;;5092854;28;20200;-77
2021/03/10 09:43:04;;;;;;;14.93;8.20;;;10.60;99.90;;;;;;5087896;28;20198;-76
2021/03/10 09:45:35;;;;;;;14.83;8.33;;;10.80;99.90;;;;;;5091994;28;20200;-77
2021/03/10 09:48:11;;;;;;;15.57;8.13;;;10.90;99.90;;;;;;5093123;28;20488;-76
2021/03/10 09:50:45;;;;;;;13.27;8.43;;;11.10;99.90;;;;;;5102877;22;20207;-78
2021/03/10 09:53:14;;;;;;;14.77;8.47;;;11.00;99.90;;;;;;5083938;28;20199;-78
2021/03/10 09:55:40;;;;;;;13.10;8.47;;;10.80;99.90;;;;;;5090240;28;20328;-78
2021/03/10 09:58:09;;;;;;;14.17;8.10;;;10.90;99.90;;;;;;5086155;28;20308;-78
2021/03/10 10:00:36;;;;;;;14.37;8.17;;;11.10;99.90;;;;;;5084360;28;20955;-78
2021/03/10 10:03:03;;;;;;;14.77;7.80;;;11.30;99.90;;;;;;5089422;28;20223;-72
2021/03/10 10:05:34;;;;;;;16.73;8.50;;;11.40;99.90;;;;;;5088706;28;20528;-72
2021/03/10 10:08:01;;;;;;;17.63;8.80;;;11.60;99.90;;;;;;5080287;28;20193;-72
2021/03/10 10:10:29;;;;;;;16.57;9.70;;;11.50;99.90;;;;;;5088777;28;20264;-72
2021/03/10 10:12:56;;;;;;;17.20;10.33;;;11.30;99.90;;;;;;5086562;28;20194;-72
2021/03/10 10:15:25;;;;;;;16.53;9.43;;;11.20;99.90;;;;;;5089235;28;20316;-73
2021/03/10 10:17:56;;;;;;;19.53;9.63;;;11.30;99.90;;;;;;5092477;28;20209;-73
2021/03/10 10:20:34;;;;;;;14.40;9.30;;;11.40;99.90;;;;;;5089459;28;20192;-74
2021/03/10 10:23:06;;;;;;;20.63;11.07;;;11.40;99.90;;;;;;5090905;28;20189;-74
2021/03/10 10:25:33;;;;;;;20.13;10.40;;;11.60;99.90;;;;;;5089920;28;20241;-73
2021/03/10 10:28:00;;;;;;;19.00;10.93;;;11.70;99.90;;;;;;5089814;28;20199;-72
2021/03/10 10:30:27;;;;;;;15.63;10.37;;;12.00;99.90;;;;;;5088747;28;20342;-72
2021/03/10 10:32:53;;;;;;;17.63;10.43;;;12.10;99.90;;;;;;5089363;28;20293;-73
2021/03/10 10:35:20;;;;;;;17.07;10.60;;;12.10;99.90;;;;;;5088919;28;20225;-72
2021/03/10 10:37:47;;;;;;;22.70;11.30;;;12.10;99.90;;;;;;5089431;28;20209;-77
2021/03/10 10:40:15;;;;;;;16.87;11.10;;;12.10;99.90;;;;;;5090375;28;20301;-78
2021/03/10 10:42:42;;;;;;;22.03;11.43;;;12.30;99.90;;;;;;5089115;28;20197;-77
2021/03/10 10:45:10;;;;;;;22.00;11.50;;;12.50;99.90;;;;;;5089830;28;20201;-78
2021/03/10 10:47:37;;;;;;;16.50;10.83;;;12.80;99.90;;;;;;5089830;28;20239;-78
2021/03/10 10:50:06;;;;;;;18.40;11.43;;;12.80;99.90;;;;;;5093619;28;20293;-78
2021/03/10 10:52:33;;;;;;;16.70;11.13;;;12.70;99.90;;;;;;5096266;28;20256;-78
2021/03/10 10:54:59;;;;;;;19.63;11.37;;;13.00;99.90;;;;;;5091640;28;20762;-78
2021/03/10 10:57:26;;;;;;;17.50;11.67;;;13.30;99.90;;;;;;5091448;28;20212;-78
2021/03/10 10:59:53;;;;;;;17.13;11.80;;;13.50;99.90;;;;;;5093493;28;20202;-78
2021/03/10 11:02:19;;;;;;;19.70;12.00;;;13.20;99.90;;;;;;5089333;28;20199;-77
2021/03/10 11:04:47;;;;;;;17.97;11.40;;;13.30;99.90;;;;;;5096865;28;20659;-76
2021/03/10 11:07:13;;;;;;;22.93;12.17;;;13.60;99.90;;;;;;5094090;28;20685;-77
2021/03/10 11:09:40;;;;;;;19.20;11.77;;;13.90;99.90;;;;;;5092067;28;20297;-77
2021/03/10 11:12:09;;;;;;;25.13;12.03;;;14.00;99.90;;;;;;5095912;28;20193;-76
2021/03/10 11:14:36;;;;;;;16.33;11.17;;;14.10;99.90;;;;;;5098296;28;20202;-76
2021/03/10 11:17:02;;;;;;;22.40;11.53;;;14.20;99.90;;;;;;5097752;28;20205;-75
2021/03/10 11:19:29;;;;;;;20.20;11.33;;;14.30;99.90;;;;;;5099463;28;20256;-77
2021/03/10 11:22:04;;;;;;;17.40;11.60;;;14.50;99.90;;;;;;5101514;28;20234;-76
2021/03/10 11:24:30;;;;;;;22.90;12.73;;;14.60;99.90;;;;;;5094040;28;20623;-77
2021/03/10 11:26:58;;;;;;;21.47;12.20;;;14.40;99.90;;;;;;5077181;28;20203;-73
2021/03/10 11:29:24;;;;;;;20.67;12.47;;;14.10;99.90;;;;;;5092447;28;20190;-73
2021/03/10 11:31:51;;;;;;;20.57;12.43;;;14.10;99.90;;;;;;5088729;28;20282;-73
2021/03/10 11:34:17;;;;;;;17.60;11.57;;;14.10;99.90;;;;;;5084742;28;20206;-73
2021/03/10 11:36:45;;;;;;;22.97;12.00;;;14.40;99.90;;;;;;5091164;28;20222;-73
2021/03/10 11:39:13;;;;;;;20.43;12.10;;;14.60;99.90;;;;;;5093347;28;20554;-73
2021/03/10 11:41:39;;;;;;;20.00;12.03;;;14.50;99.90;;;;;;5092594;28;20198;-73
2021/03/10 11:44:06;;;;;;;20.20;12.37;;;14.60;99.90;;;;;;5090698;28;20201;-74
2021/03/10 11:46:33;;;;;;;20.40;12.50;;;14.60;99.90;;;;;;5088378;28;20202;-74
2021/03/10 11:49:00;;;;;;;23.13;13.40;;;14.60;99.90;;;;;;5093558;28;20201;-73
2021/03/10 11:51:27;;;;;;;25.90;13.47;;;14.40;99.90;;;;;;5093418;28;20220;-73
2021/03/10 11:53:53;;;;;;;23.60;12.83;;;14.40;99.90;;;;;;5085884;28;20202;-73
2021/03/10 11:56:21;;;;;;;24.80;12.43;;;14.50;99.90;;;;;;5093718;28;20625;-73
2021/03/10 11:58:47;;;;;;;27.40;13.50;;;14.60;99.90;;;;;;5086533;28;20731;-74
2021/03/10 12:01:14;;;;;;;21.57;13.37;;;14.60;99.90;;;;;;5089048;28;20282;-73
2021/03/10 12:03:41;;;;;;;28.27;13.20;;;14.60;99.90;;;;;;5092293;28;20213;-73
2021/03/10 12:06:08;;;;;;;21.37;12.50;;;14.60;99.90;;;;;;5094821;28;20574;-73
2021/03/10 12:08:34;;;;;;;21.93;13.63;;;14.70;99.90;;;;;;5081469;28;20253;-73
2021/03/10 12:11:01;;;;;;;29.13;13.97;;;15.00;99.90;;;;;;5088058;28;20283;-73
2021/03/10 12:13:31;;;;;;;23.87;13.63;;;15.20;99.90;;;;;;5085234;28;20583;-74
2021/03/10 12:15:58;;;;;;;22.47;14.13;;;14.80;99.90;;;;;;5088353;28;20215;-73
2021/03/10 12:18:24;;;;;;;23.33;14.60;;;14.80;99.90;;;;;;5085422;28;20196;-73
2021/03/10 12:20:50;;;;;;;25.70;13.90;;;14.80;99.90;;;;;;5086452;28;20261;-73
2021/03/10 12:23:17;;;;;;;24.37;14.07;;;14.70;99.90;;;;;;5083534;28;20217;-73
2021/03/10 12:25:44;;;;;;;24.53;15.07;;;14.70;99.90;;;;;;5090947;28;20229;-72
2021/03/10 12:28:10;;;;;;;26.17;14.93;;;14.60;99.90;;;;;;5093125;28;20672;-73
2021/03/10 12:30:38;;;;;;;26.97;15.73;;;14.30;99.90;;;;;;5093144;28;20289;-73
2021/03/10 12:33:05;;;;;;;28.30;16.00;;;14.40;99.90;;;;;;5094071;28;20228;-73
2021/03/10 12:35:31;;;;;;;25.07;15.47;;;14.30;99.90;;;;;;5094050;28;20683;-72
2021/03/10 12:37:58;;;;;;;25.33;15.47;;;14.40;99.90;;;;;;5093861;28;20199;-72